createdAt,value
2022-09-05T00:00:11.646Z,8.13
2022-09-05T00:02:41.803Z,8.30
2022-09-05T00:05:13.443Z,8.70
2022-09-05T00:07:58.898Z,7.50
2022-09-05T00:10:17.740Z,8.58
2022-09-05T00:13:07.376Z,8.40
2022-09-05T00:15:42.390Z,9.10
2022-09-05T00:19:46.542Z,8.95
2022-09-05T00:24:28.426Z,9.95
2022-09-05T00:24:31.663Z,9.10
2022-09-05T00:25:53.067Z,9.60
2022-09-05T00:28:26.707Z,9.10
2022-09-05T00:31:08.674Z,8.60
2022-09-05T00:33:28.900Z,13.85
2022-09-05T00:36:01.317Z,8.60
2022-09-05T00:38:36.717Z,7.83
2022-09-05T00:41:06.418Z,7.55
2022-09-05T00:43:37.817Z,8.50
2022-09-05T00:46:09.334Z,9.30
2022-09-05T00:48:40.679Z,9.63
2022-09-05T00:51:12.286Z,8.68
2022-09-05T00:53:43.941Z,10.23
2022-09-05T00:56:15.402Z,9.13
2022-09-05T00:58:47.471Z,8.98
2022-09-05T01:01:20.892Z,8.83
2022-09-05T01:03:50.229Z,8.85
2022-09-05T01:06:22.034Z,9.48
2022-09-05T01:08:53.338Z,9.15
2022-09-05T01:11:24.642Z,9.40
2022-09-05T01:13:56.031Z,8.80
2022-09-05T01:16:27.373Z,9.18
2022-09-05T01:18:59.169Z,9.38
2022-09-05T01:21:30.935Z,9.70
2022-09-05T01:24:02.597Z,9.55
2022-09-05T01:26:34.077Z,9.25
2022-09-05T01:29:15.254Z,9.43
2022-09-05T01:31:38.383Z,9.10
2022-09-05T01:34:10.335Z,9.18
2022-09-05T01:36:42.752Z,9.50
2022-09-05T01:39:55.153Z,8.88
2022-09-05T01:41:47.577Z,8.63
2022-09-05T01:44:18.998Z,8.85
2022-09-05T01:46:50.882Z,9.45
2022-09-05T01:49:23.724Z,8.88
2022-09-05T01:51:55.383Z,8.55
2022-09-05T01:54:28.498Z,8.15
2022-09-05T01:56:59.602Z,9.40
2022-09-05T01:59:31.021Z,9.45
2022-09-05T02:02:02.555Z,9.60
2022-09-05T02:04:34.433Z,8.48
2022-09-05T02:07:19.363Z,7.80
2022-09-05T02:09:38.586Z,7.87
2022-09-05T02:12:11.625Z,8.00
2022-09-05T02:14:43.382Z,9.05
2022-09-05T02:17:27.351Z,8.58
2022-09-05T02:19:48.313Z,9.23
2022-09-05T02:22:19.625Z,9.48
2022-09-05T02:24:51.193Z,9.28
2022-09-05T02:27:40.248Z,9.30
2022-09-05T02:29:58.196Z,8.58
2022-09-05T02:32:29.668Z,10.03
2022-09-05T02:35:01.291Z,9.05
2022-09-05T02:40:29.835Z,8.83
2022-09-05T02:45:08.419Z,8.68
2022-09-05T02:45:10.845Z,8.88
2022-09-05T02:45:27.471Z,9.13
2022-09-05T02:47:43.794Z,8.63
2022-09-05T02:54:17.897Z,9.25
2022-09-05T02:57:26.264Z,9.73
2022-09-05T02:57:34.045Z,8.78
2022-09-05T02:58:07.236Z,9.58
2022-09-05T03:00:27.028Z,9.15
2022-09-05T03:02:58.495Z,8.90
2022-09-05T03:05:29.941Z,8.78
2022-09-05T03:08:01.253Z,9.30
2022-09-05T03:10:51.860Z,9.08
2022-09-05T03:13:04.617Z,8.43
2022-09-05T03:15:35.904Z,9.45
2022-09-05T03:18:20.652Z,9.73
2022-09-05T03:20:39.925Z,10.53
2022-09-05T03:23:11.230Z,9.95
2022-09-05T03:25:42.693Z,9.63
2022-09-05T03:28:14.153Z,10.13
2022-09-05T03:30:43.947Z,9.95
2022-09-05T03:33:15.403Z,10.85
2022-09-05T03:35:46.773Z,11.28
2022-09-05T03:38:18.101Z,9.88
2022-09-05T03:40:49.586Z,9.83
2022-09-05T03:43:20.888Z,9.50
2022-09-05T03:45:52.228Z,9.20
2022-09-05T03:48:28.695Z,9.18
2022-09-05T03:57:04.833Z,8.95
2022-09-05T03:57:12.143Z,8.80
2022-09-05T03:57:13.709Z,9.20
2022-09-05T03:58:56.084Z,9.18
2022-09-05T04:01:52.542Z,9.43
2022-09-05T04:08:10.403Z,9.88
2022-09-05T04:08:24.253Z,9.78
2022-09-05T04:08:44.867Z,9.70
2022-09-05T04:11:17.269Z,9.75
2022-09-05T04:13:48.948Z,10.18
2022-09-05T04:16:20.367Z,9.80
2022-09-05T04:18:52.133Z,9.88
2022-09-05T04:21:23.843Z,11.05
2022-09-05T04:23:53.932Z,10.03
2022-09-05T04:26:25.697Z,9.08
2022-09-05T04:28:57.531Z,9.48
2022-09-05T04:31:29.716Z,10.48
2022-09-05T04:34:01.811Z,10.95
2022-09-05T04:36:34.306Z,10.05
2022-09-05T04:39:05.764Z,10.00
2022-09-05T04:41:39.809Z,12.30
2022-09-05T04:44:10.133Z,11.05
2022-09-05T04:46:48.579Z,10.88
2022-09-05T04:49:15.253Z,9.78
2022-09-05T04:52:00.244Z,10.45
2022-09-05T04:54:20.446Z,9.88
2022-09-05T04:56:52.019Z,9.53
2022-09-05T05:01:24.287Z,10.48
2022-09-05T05:06:05.740Z,10.63
2022-09-05T05:06:08.917Z,10.95
2022-09-05T05:07:19.275Z,9.78
2022-09-05T05:09:54.913Z,10.43
2022-09-05T05:17:53.919Z,11.12
2022-09-05T05:17:59.641Z,10.38
2022-09-05T05:18:12.353Z,9.93
2022-09-05T05:20:40.008Z,9.90
2022-09-05T05:22:35.705Z,9.83
2022-09-05T05:25:06.151Z,9.48
2022-09-05T05:27:37.502Z,10.13
2022-09-05T05:30:09.528Z,8.60
2022-09-05T05:32:45.882Z,9.00
2022-09-05T05:35:14.339Z,8.78
2022-09-05T05:37:46.134Z,8.73
2022-09-05T05:40:17.823Z,9.10
2022-09-05T05:42:48.375Z,8.93
2022-09-05T05:45:19.670Z,8.60
2022-09-05T05:47:51.868Z,8.68
2022-09-05T05:50:23.280Z,9.53
2022-09-05T05:52:55.151Z,9.25
2022-09-05T05:55:52.424Z,9.55
2022-09-05T05:57:59.450Z,9.75
2022-09-05T06:00:31.092Z,20.55
2022-09-05T06:03:24.784Z,9.45
2022-09-05T06:05:33.966Z,9.25
2022-09-05T06:10:39.048Z,8.88
2022-09-05T06:14:49.155Z,9.23
2022-09-05T06:15:06.062Z,9.90
2022-09-05T06:15:43.533Z,9.35
2022-09-05T06:18:14.913Z,9.10
2022-09-05T06:22:07.119Z,9.85
2022-09-05T06:23:33.497Z,9.40
2022-09-05T06:25:51.799Z,9.35
2022-09-05T06:28:23.325Z,9.28
2022-09-05T06:30:59.285Z,10.28
2022-09-05T06:33:27.386Z,9.63
2022-09-05T06:35:59.030Z,8.35
2022-09-05T06:38:31.472Z,8.80
2022-09-05T06:41:03.064Z,9.13
2022-09-05T06:43:34.737Z,9.68
2022-09-05T06:46:06.118Z,9.50
2022-09-05T06:48:45.680Z,9.63
2022-09-05T06:51:11.648Z,9.30
2022-09-05T06:53:43.512Z,10.23
2022-09-05T06:56:25.400Z,9.38
2022-09-05T06:58:47.861Z,9.50
2022-09-05T07:01:19.412Z,9.65
2022-09-05T07:03:52.235Z,9.50
2022-09-05T07:06:23.760Z,10.23
2022-09-05T07:08:57.438Z,10.03
2022-09-05T07:11:30.170Z,9.98
2022-09-05T07:14:00.433Z,9.20
2022-09-05T07:16:37.832Z,11.05
2022-09-05T07:19:05.553Z,9.43
2022-09-05T07:21:37.678Z,10.78
2022-09-05T07:24:10.993Z,10.30
2022-09-05T07:26:52.592Z,9.70
2022-09-05T07:29:17.656Z,10.50
2022-09-05T07:31:49.010Z,10.55
2022-09-05T07:34:21.629Z,11.12
2022-09-05T07:37:03.077Z,9.50
2022-09-05T07:39:29.228Z,8.80
2022-09-05T07:41:59.025Z,8.65
2022-09-05T07:44:31.275Z,8.33
2022-09-05T07:47:02.813Z,8.35
2022-09-05T07:49:34.121Z,8.63
2022-09-05T07:56:55.335Z,7.50
2022-09-05T07:57:08.982Z,8.00
2022-09-05T07:59:47.680Z,8.53
2022-09-05T08:02:17.802Z,8.35
2022-09-05T08:04:48.173Z,8.80
2022-09-05T08:07:47.490Z,8.25
2022-09-05T08:10:08.450Z,8.70
2022-09-05T08:12:27.789Z,9.00
2022-09-05T08:14:59.902Z,8.78
2022-09-05T08:17:30.995Z,8.18
2022-09-05T08:20:08.551Z,8.88
2022-09-05T08:22:35.239Z,9.25
2022-09-05T08:25:07.894Z,8.28
2022-09-05T08:27:39.230Z,8.90
2022-09-05T08:30:26.751Z,7.87
2022-09-05T08:32:45.421Z,6.70
2022-09-05T08:35:17.018Z,7.10
2022-09-05T08:37:49.372Z,6.75
2022-09-05T08:40:20.741Z,6.83
2022-09-05T08:43:38.067Z,6.62
2022-09-05T08:46:44.796Z,6.05
2022-09-05T08:47:58.069Z,6.92
2022-09-05T08:50:29.778Z,6.12
2022-09-05T08:53:01.350Z,6.92
2022-09-05T08:55:32.942Z,6.75
2022-09-05T08:58:04.361Z,5.87
2022-09-05T09:00:37.498Z,6.00
2022-09-05T09:03:09.348Z,6.35
2022-09-05T09:06:14.549Z,7.35
2022-09-05T09:08:11.908Z,7.47
2022-09-05T09:10:44.879Z,6.90
2022-09-05T09:13:16.435Z,7.12
2022-09-05T09:15:47.873Z,7.12
2022-09-05T09:18:18.957Z,6.60
2022-09-05T09:20:50.343Z,7.28
2022-09-05T09:23:29.772Z,7.00
2022-09-05T09:25:54.930Z,7.30
2022-09-05T09:28:46.858Z,7.67
2022-09-05T09:30:59.032Z,7.53
2022-09-05T09:33:30.619Z,7.30
2022-09-05T09:36:07.769Z,7.37
2022-09-05T09:38:34.877Z,7.22
2022-09-05T09:41:06.258Z,7.53
2022-09-05T09:43:36.816Z,7.85
2022-09-05T09:46:08.444Z,7.70
2022-09-05T09:48:38.448Z,7.75
2022-09-05T09:51:10.013Z,7.33
2022-09-05T09:53:41.525Z,6.05
2022-09-05T09:56:12.887Z,5.80
2022-09-05T09:58:44.298Z,5.15
2022-09-05T10:01:34.772Z,5.20
2022-09-05T10:06:50.995Z,5.17
2022-09-05T10:10:44.212Z,5.40
2022-09-05T10:10:48.647Z,5.20
2022-09-05T10:11:53.815Z,5.05
2022-09-05T10:14:00.670Z,4.50
2022-09-05T10:16:32.147Z,4.62
2022-09-05T10:19:02.081Z,4.90
2022-09-05T10:21:33.611Z,4.50
2022-09-05T10:24:05.139Z,5.25
2022-09-05T10:26:35.320Z,6.00
2022-09-05T10:29:13.790Z,5.80
2022-09-05T10:33:22.678Z,5.17
2022-09-05T10:35:07.920Z,5.17
2022-09-05T10:36:44.440Z,5.35
2022-09-05T10:39:15.859Z,4.85
2022-09-05T10:41:46.114Z,4.83
2022-09-05T10:44:17.209Z,4.80
2022-09-05T10:46:51.180Z,4.15
2022-09-05T10:49:19.035Z,4.90
2022-09-05T10:51:51.921Z,4.92
2022-09-05T10:54:24.400Z,4.58
2022-09-05T10:56:56.845Z,5.15
2022-09-05T11:00:45.791Z,6.03
2022-09-05T11:02:26.570Z,5.20
2022-09-05T11:04:37.182Z,5.33
2022-09-05T11:07:07.431Z,5.00
2022-09-05T11:09:38.770Z,5.37
2022-09-05T11:12:10.321Z,5.30
2022-09-05T11:14:43.606Z,5.72
2022-09-05T11:17:13.714Z,5.37
2022-09-05T11:19:44.452Z,5.40
2022-09-05T11:22:23.129Z,5.30
2022-09-05T11:24:48.362Z,4.70
2022-09-05T11:27:24.775Z,5.53
2022-09-05T11:29:50.935Z,4.65
2022-09-05T11:34:04.181Z,5.33
2022-09-05T11:39:51.263Z,5.85
2022-09-05T11:40:09.520Z,5.80
2022-09-05T11:40:28.554Z,5.95
2022-09-05T11:42:34.355Z,5.42
2022-09-05T11:45:05.907Z,5.97
2022-09-05T11:47:43.407Z,6.75
2022-09-05T11:50:11.690Z,6.15
2022-09-05T11:52:43.214Z,4.87
2022-09-05T11:55:21.169Z,4.97
2022-09-05T11:57:47.951Z,4.10
2022-09-05T12:00:33.768Z,3.83
2022-09-05T12:02:52.096Z,3.52
2022-09-05T12:05:49.293Z,3.30
2022-09-05T12:07:57.952Z,3.00
2022-09-05T12:10:46.306Z,3.40
2022-09-05T12:13:01.949Z,3.47
2022-09-05T12:15:34.400Z,3.02
2022-09-05T12:18:04.442Z,3.72
2022-09-05T12:20:43.542Z,3.85
2022-09-05T12:23:24.899Z,3.98
2022-09-05T12:27:39.513Z,4.12
2022-09-05T12:29:26.563Z,4.00
2022-09-05T12:30:57.173Z,4.50
2022-09-05T12:35:55.642Z,4.40
2022-09-05T12:36:12.813Z,3.42
2022-09-05T12:40:55.849Z,4.20
2022-09-05T12:41:44.939Z,4.15
2022-09-05T12:44:45.099Z,4.72
2022-09-05T12:46:05.271Z,4.65
2022-09-05T12:48:39.640Z,4.15
2022-09-05T12:51:11.148Z,4.83
2022-09-05T12:53:43.938Z,3.77
2022-09-05T12:58:01.442Z,4.78
2022-09-05T13:03:04.682Z,4.20
2022-09-05T13:03:06.942Z,4.05
2022-09-05T13:04:18.218Z,4.58
2022-09-05T13:06:26.197Z,3.95
2022-09-05T13:08:59.044Z,3.77
2022-09-05T13:14:49.704Z,4.00
2022-09-05T13:14:54.320Z,4.80
2022-09-05T13:16:40.821Z,4.95
2022-09-05T13:19:12.546Z,4.35
2022-09-05T13:21:45.407Z,4.80
2022-09-05T13:24:18.076Z,4.03
2022-09-05T13:26:53.118Z,4.78
2022-09-05T13:29:24.863Z,4.28
2022-09-05T13:37:59.482Z,4.62
2022-09-05T13:38:05.948Z,4.83
2022-09-05T13:38:10.676Z,5.28
2022-09-05T13:39:35.085Z,5.67
2022-09-05T13:42:05.712Z,5.45
2022-09-05T13:44:37.365Z,6.25
2022-09-05T13:47:28.367Z,5.47
2022-09-05T13:49:44.300Z,5.50
2022-09-05T13:52:15.956Z,6.08
2022-09-05T13:54:51.062Z,5.67
2022-09-05T13:57:31.970Z,5.42
2022-09-05T13:59:52.930Z,5.42
2022-09-05T14:02:27.213Z,5.60
2022-09-05T14:05:06.399Z,5.85
2022-09-05T14:07:50.755Z,5.62
2022-09-05T14:10:08.337Z,6.08
2022-09-05T14:12:39.813Z,6.03
2022-09-05T14:15:14.204Z,6.17
2022-09-05T14:17:51.134Z,5.70
2022-09-05T14:20:21.131Z,5.85
2022-09-05T14:22:53.535Z,5.42
2022-09-05T14:25:26.509Z,6.15
2022-09-05T14:27:57.938Z,5.25
2022-09-05T14:33:48.796Z,5.65
2022-09-05T14:37:46.092Z,6.20
2022-09-05T14:37:51.715Z,5.45
2022-09-05T14:38:15.690Z,5.72
2022-09-05T14:40:47.683Z,6.25
2022-09-05T14:43:33.143Z,6.20
2022-09-05T14:46:05.210Z,6.10
2022-09-05T14:48:39.235Z,6.10
2022-09-05T14:51:09.573Z,6.20
2022-09-05T14:57:23.109Z,6.50
2022-09-05T15:02:42.723Z,6.83
2022-09-05T15:02:51.877Z,7.00
2022-09-05T15:06:33.296Z,6.17
2022-09-05T15:12:14.080Z,6.60
2022-09-05T15:12:27.777Z,7.28
2022-09-05T15:14:04.796Z,6.55
2022-09-05T15:16:37.434Z,6.15
2022-09-05T15:19:09.098Z,6.62
2022-09-05T15:21:41.702Z,7.03
2022-09-05T15:24:14.522Z,7.08
2022-09-05T15:26:45.866Z,7.12
2022-09-05T15:29:16.484Z,7.20
2022-09-05T15:31:46.791Z,7.00
2022-09-05T15:34:19.943Z,6.70
2022-09-05T15:36:50.115Z,6.75
2022-09-05T15:39:21.483Z,6.62
2022-09-05T15:41:51.793Z,6.50
2022-09-05T15:44:23.364Z,6.30
2022-09-05T15:46:56.102Z,6.72
2022-09-05T15:49:28.619Z,5.95
2022-09-05T15:52:00.025Z,7.12
2022-09-05T15:54:38.718Z,6.45
2022-09-05T15:57:04.651Z,6.85
2022-09-05T15:59:37.054Z,7.42
2022-09-05T16:02:08.576Z,6.92
2022-09-05T16:10:01.463Z,6.65
2022-09-05T16:10:33.769Z,6.67
2022-09-05T16:10:35.757Z,7.58
2022-09-05T16:12:19.974Z,6.83
2022-09-05T16:16:32.330Z,6.92
2022-09-05T16:23:12.237Z,7.80
2022-09-05T16:23:28.518Z,7.55
2022-09-05T16:23:29.522Z,7.28
2022-09-05T16:25:03.054Z,6.85
2022-09-05T16:27:34.445Z,6.80
2022-09-05T16:30:07.910Z,7.90
2022-09-05T16:32:41.388Z,6.97
2022-09-05T16:35:13.301Z,6.70
2022-09-05T16:37:43.285Z,6.62
2022-09-05T16:40:14.825Z,6.60
2022-09-05T16:42:47.750Z,6.60
2022-09-05T16:45:19.125Z,6.90
2022-09-05T16:47:49.045Z,6.87
2022-09-05T16:50:23.955Z,7.42
2022-09-05T16:52:54.137Z,6.87
2022-09-05T16:55:29.262Z,7.30
2022-09-05T16:57:57.881Z,7.60
2022-09-05T17:00:28.409Z,7.35
2022-09-05T17:02:59.868Z,7.35
2022-09-05T17:05:31.211Z,7.08
2022-09-05T17:08:03.541Z,7.50
2022-09-05T17:10:35.017Z,7.08
2022-09-05T17:13:07.395Z,7.25
2022-09-05T17:15:38.549Z,7.50
2022-09-05T17:18:21.327Z,7.30
2022-09-05T17:20:44.503Z,7.67
2022-09-05T17:28:54.055Z,7.95
2022-09-05T17:29:25.248Z,7.85
2022-09-05T17:29:30.890Z,7.95
2022-09-05T17:34:09.498Z,7.53
2022-09-05T17:36:42.403Z,7.47
2022-09-05T17:39:13.886Z,7.40
2022-09-05T17:41:45.472Z,7.62
2022-09-05T17:44:18.172Z,7.05
2022-09-05T17:46:49.649Z,7.22
2022-09-05T17:49:21.158Z,7.30
2022-09-05T17:51:52.659Z,7.20
2022-09-05T17:54:24.254Z,7.40
2022-09-05T17:56:54.903Z,6.78
2022-09-05T17:59:26.157Z,7.12
2022-09-05T18:02:07.770Z,7.67
2022-09-05T18:04:39.902Z,7.67
2022-09-05T18:07:11.901Z,7.37
2022-09-05T18:09:42.506Z,7.40
2022-09-05T18:13:11.933Z,6.55
2022-09-05T18:14:50.221Z,7.35
2022-09-05T18:17:36.859Z,7.08
2022-09-05T18:19:57.782Z,7.45
2022-09-05T18:22:26.204Z,6.67
2022-09-05T18:24:57.858Z,7.45
2022-09-05T18:27:43.940Z,6.85
2022-09-05T18:30:04.058Z,6.83
2022-09-05T18:32:36.930Z,7.35
2022-09-05T18:35:09.031Z,7.20
2022-09-05T18:37:40.252Z,7.10
2022-09-05T18:40:31.108Z,7.22
2022-09-05T18:42:45.429Z,6.90
2022-09-05T18:45:16.949Z,7.45
2022-09-05T18:47:53.269Z,6.97
2022-09-05T18:50:26.585Z,6.97
2022-09-05T18:53:09.910Z,7.08
2022-09-05T18:56:13.855Z,7.10
2022-09-05T18:58:03.391Z,6.80
2022-09-05T19:00:41.632Z,7.00
2022-09-05T19:03:06.298Z,6.55
2022-09-05T19:05:38.198Z,7.28
2022-09-05T19:08:12.536Z,6.90
2022-09-05T19:10:41.442Z,7.20
2022-09-05T19:13:13.758Z,7.10
2022-09-05T19:15:48.050Z,7.92
2022-09-05T19:18:25.800Z,6.78
2022-09-05T19:20:53.248Z,6.80
2022-09-05T19:23:26.142Z,6.58
2022-09-05T19:25:58.407Z,7.30
2022-09-05T19:36:46.395Z,7.35
2022-09-05T19:36:53.005Z,7.08
2022-09-05T19:37:03.450Z,6.60
2022-09-05T19:37:05.618Z,6.85
2022-09-05T19:39:32.609Z,6.50
2022-09-05T19:46:02.089Z,5.97
2022-09-05T19:47:42.241Z,5.83
2022-09-05T19:47:47.527Z,5.83
2022-09-05T19:48:55.309Z,5.70
2022-09-05T19:51:26.985Z,6.08
2022-09-05T19:54:05.514Z,7.40
2022-09-05T19:56:30.850Z,6.83
2022-09-05T19:59:02.401Z,7.20
2022-09-05T20:01:33.433Z,7.05
2022-09-05T20:04:03.607Z,7.25
2022-09-05T20:06:33.893Z,7.15
2022-09-05T20:09:05.346Z,7.53
2022-09-05T20:11:45.661Z,7.92
2022-09-05T20:14:09.072Z,7.20
2022-09-05T20:16:42.361Z,6.67
2022-09-05T20:19:14.322Z,7.17
2022-09-05T20:21:44.440Z,8.08
2022-09-05T20:24:14.661Z,8.53
2022-09-05T20:26:46.351Z,8.75
2022-09-05T20:29:18.390Z,8.23
2022-09-05T20:31:50.775Z,8.35
2022-09-05T20:35:32.981Z,8.45
2022-09-05T20:43:08.283Z,7.60
2022-09-05T20:43:22.128Z,8.25
2022-09-05T20:43:27.433Z,7.60
2022-09-05T20:54:18.233Z,8.28
2022-09-05T20:54:21.530Z,7.78
2022-09-05T20:55:40.010Z,7.70
2022-09-05T20:57:52.078Z,7.97
2022-09-05T21:00:23.239Z,8.10
2022-09-05T21:02:58.326Z,8.23
2022-09-05T21:05:28.879Z,7.92
2022-09-05T21:08:06.983Z,8.23
2022-09-05T21:10:34.219Z,8.13
2022-09-05T21:13:06.044Z,8.35
2022-09-05T21:15:53.708Z,8.10
2022-09-05T21:18:10.877Z,8.35
2022-09-05T21:20:42.007Z,8.38
2022-09-05T21:26:01.170Z,8.63
2022-09-05T21:28:37.062Z,8.83
2022-09-05T21:31:05.571Z,8.83
2022-09-05T21:33:45.391Z,8.45
2022-09-05T21:36:10.181Z,8.38
2022-09-05T21:38:43.040Z,8.20
2022-09-05T21:47:35.580Z,8.35
2022-09-05T21:47:40.211Z,8.73
2022-09-05T21:49:04.821Z,7.58
2022-09-05T21:51:35.361Z,8.20
2022-09-05T21:59:16.952Z,8.93
2022-09-05T21:59:19.474Z,8.80
2022-09-05T21:59:29.710Z,8.03
2022-09-05T22:01:52.548Z,7.85
2022-09-05T22:04:16.828Z,7.78
2022-09-05T22:06:48.760Z,8.10
2022-09-05T22:09:20.789Z,7.33
2022-09-05T22:11:52.298Z,6.75
2022-09-05T22:14:23.740Z,6.58
2022-09-05T22:16:55.801Z,7.08
2022-09-05T22:19:36.821Z,8.13
2022-09-05T22:22:01.089Z,8.45
2022-09-05T22:24:32.393Z,8.03
2022-09-05T22:27:12.759Z,7.80
2022-09-05T22:29:37.005Z,7.83
2022-09-05T22:32:07.618Z,8.35
2022-09-05T22:34:37.955Z,8.60
2022-09-05T22:37:08.177Z,11.93
2022-09-05T22:39:38.813Z,19.40
2022-09-05T22:42:10.789Z,13.22
2022-09-05T22:44:41.878Z,13.53
2022-09-05T22:47:12.547Z,22.30
2022-09-05T22:49:43.748Z,15.93
2022-09-05T22:52:14.114Z,16.07
2022-09-05T22:54:44.801Z,19.92
2022-09-05T22:57:23.854Z,19.60
2022-09-05T22:59:54.011Z,19.70
2022-09-05T23:02:24.022Z,15.60
2022-09-05T23:04:54.604Z,12.95
2022-09-05T23:07:25.338Z,13.98
2022-09-05T23:09:55.653Z,12.73
2022-09-05T23:12:29.767Z,12.15
2022-09-05T23:15:00.196Z,14.63
2022-09-05T23:17:30.733Z,13.78
2022-09-05T23:20:01.285Z,13.93
2022-09-05T23:22:31.759Z,15.13
2022-09-05T23:25:02.108Z,12.90
2022-09-05T23:27:33.596Z,11.57
2022-09-05T23:30:04.043Z,11.80
2022-09-05T23:32:34.816Z,12.00
2022-09-05T23:35:23.031Z,13.93
2022-09-05T23:37:53.227Z,13.85
2022-09-05T23:40:24.459Z,15.43
2022-09-05T23:42:54.371Z,17.45
2022-09-05T23:45:26.208Z,16.35
2022-09-05T23:47:56.552Z,18.45
2022-09-05T23:50:27.529Z,15.43
2022-09-05T23:52:57.641Z,17.12
2022-09-05T23:55:28.528Z,12.58
2022-09-05T23:58:00.117Z,11.95
